sensor_id;sensor_type;location;lat;lon;timestamp;P1;durP1;ratioP1;P2;durP2;ratioP2
16272;SDS011;8244;50.044;9.006;2023-05-10T05:30:56;3.03;;;2.40;;
16272;SDS011;8244;50.044;9.006;2023-05-10T05:36:00;3.08;;;2.30;;
16272;SDS011;8244;50.044;9.006;2023-05-10T05:46:07;3.50;;;2.47;;
16272;SDS011;8244;50.044;9.006;2023-05-10T05:51:10;4.50;;;2.50;;
16272;SDS011;8244;50.044;9.006;2023-05-10T05:56:13;5.00;;;2.35;;
16272;SDS011;8244;50.044;9.006;2023-05-10T06:01:18;3.97;;;2.30;;
16272;SDS011;8244;50.044;9.006;2023-05-10T06:06:21;3.10;;;2.13;;
16272;SDS011;8244;50.044;9.006;2023-05-10T06:11:23;4.13;;;2.15;;
16272;SDS011;8244;50.044;9.006;2023-05-10T06:16:28;5.53;;;2.30;;
16272;SDS011;8244;50.044;9.006;2023-05-10T06:21:30;5.65;;;2.25;;
16272;SDS011;8244;50.044;9.006;2023-05-10T06:26:32;7.05;;;2.70;;
16272;SDS011;8244;50.044;9.006;2023-05-10T06:31:35;4.05;;;2.00;;
16272;SDS011;8244;50.044;9.006;2023-05-10T06:36:37;6.10;;;2.40;;
16272;SDS011;8244;50.044;9.006;2023-05-10T06:41:39;3.13;;;2.00;;
16272;SDS011;8244;50.044;9.006;2023-05-10T06:46:43;5.20;;;2.50;;
16272;SDS011;8244;50.044;9.006;2023-05-10T06:51:45;6.82;;;2.50;;
16272;SDS011;8244;50.044;9.006;2023-05-10T06:56:48;3.33;;;2.20;;
16272;SDS011;8244;50.044;9.006;2023-05-10T07:01:52;6.63;;;2.20;;
16272;SDS011;8244;50.044;9.006;2023-05-10T07:06:54;6.00;;;2.30;;
16272;SDS011;8244;50.044;9.006;2023-05-10T07:11:56;5.45;;;2.80;;
16272;SDS011;8244;50.044;9.006;2023-05-10T07:17:00;7.82;;;2.30;;
16272;SDS011;8244;50.044;9.006;2023-05-10T07:22:09;4.03;;;2.15;;
16272;SDS011;8244;50.044;9.006;2023-05-10T07:27:11;5.63;;;2.40;;
16272;SDS011;8244;50.044;9.006;2023-05-10T07:32:15;8.80;;;2.47;;
16272;SDS011;8244;50.044;9.006;2023-05-10T07:37:18;4.70;;;2.10;;
16272;SDS011;8244;50.044;9.006;2023-05-10T07:42:22;4.35;;;2.38;;
16272;SDS011;8244;50.044;9.006;2023-05-10T07:47:32;8.55;;;2.50;;
16272;SDS011;8244;50.044;9.006;2023-05-10T07:52:35;7.20;;;2.80;;
16272;SDS011;8244;50.044;9.006;2023-05-10T07:57:44;5.82;;;2.40;;
16272;SDS011;8244;50.044;9.006;2023-05-10T08:02:48;5.43;;;2.50;;
16272;SDS011;8244;50.044;9.006;2023-05-10T08:07:50;6.57;;;2.50;;
16272;SDS011;8244;50.044;9.006;2023-05-10T08:12:53;6.63;;;2.88;;
16272;SDS011;8244;50.044;9.006;2023-05-10T08:17:57;3.88;;;2.08;;
16272;SDS011;8244;50.044;9.006;2023-05-10T08:22:59;5.47;;;2.40;;
16272;SDS011;8244;50.044;9.006;2023-05-10T08:28:05;4.20;;;2.60;;
16272;SDS011;8244;50.044;9.006;2023-05-10T08:33:09;5.57;;;2.95;;
16272;SDS011;8244;50.044;9.006;2023-05-10T08:38:12;5.35;;;2.38;;
16272;SDS011;8244;50.044;9.006;2023-05-10T08:43:15;4.97;;;2.10;;
16272;SDS011;8244;50.044;9.006;2023-05-10T08:53:19;5.72;;;2.13;;
16272;SDS011;8244;50.044;9.006;2023-05-10T08:58:22;3.42;;;1.90;;
16272;SDS011;8244;50.044;9.006;2023-05-10T09:03:24;4.45;;;2.10;;
16272;SDS011;8244;50.044;9.006;2023-05-10T09:08:27;3.83;;;2.30;;
16272;SDS011;8244;50.044;9.006;2023-05-10T09:13:31;3.38;;;2.17;;
16272;SDS011;8244;50.044;9.006;2023-05-10T09:18:33;2.58;;;2.00;;
16272;SDS011;8244;50.044;9.006;2023-05-10T09:23:37;3.45;;;1.83;;
16272;SDS011;8244;50.044;9.006;2023-05-10T09:28:50;2.28;;;1.85;;
16272;SDS011;8244;50.044;9.006;2023-05-10T09:33:52;5.80;;;2.53;;
16272;SDS011;8244;50.044;9.006;2023-05-10T09:38:55;4.53;;;1.92;;
16272;SDS011;8244;50.044;9.006;2023-05-10T09:43:58;3.00;;;1.75;;
16272;SDS011;8244;50.044;9.006;2023-05-10T09:49:00;6.15;;;2.60;;
16272;SDS011;8244;50.044;9.006;2023-05-10T09:54:12;3.35;;;1.60;;
16272;SDS011;8244;50.044;9.006;2023-05-10T09:59:15;2.67;;;1.42;;
16272;SDS011;8244;50.044;9.006;2023-05-10T10:04:17;4.00;;;1.38;;
16272;SDS011;8244;50.044;9.006;2023-05-10T10:09:21;3.10;;;1.60;;
16272;SDS011;8244;50.044;9.006;2023-05-10T10:14:23;1.60;;;1.50;;
16272;SDS011;8244;50.044;9.006;2023-05-10T10:19:25;3.60;;;1.50;;
16272;SDS011;8244;50.044;9.006;2023-05-10T10:24:29;2.63;;;1.83;;
16272;SDS011;8244;50.044;9.006;2023-05-10T10:29:32;3.25;;;1.63;;
16272;SDS011;8244;50.044;9.006;2023-05-10T10:34:40;2.60;;;1.60;;
16272;SDS011;8244;50.044;9.006;2023-05-10T10:39:43;5.15;;;1.90;;
16272;SDS011;8244;50.044;9.006;2023-05-10T10:44:45;2.03;;;1.40;;
16272;SDS011;8244;50.044;9.006;2023-05-10T10:49:48;2.75;;;1.60;;
16272;SDS011;8244;50.044;9.006;2023-05-10T10:54:52;5.75;;;1.17;;
16272;SDS011;8244;50.044;9.006;2023-05-10T11:00:18;3.00;;;2.10;;
16272;SDS011;8244;50.044;9.006;2023-05-10T11:11:05;2.22;;;1.50;;
16272;SDS011;8244;50.044;9.006;2023-05-10T11:16:14;2.72;;;1.15;;
16272;SDS011;8244;50.044;9.006;2023-05-10T11:21:17;1.17;;;1.00;;
16272;SDS011;8244;50.044;9.006;2023-05-10T11:26:20;5.38;;;1.70;;
16272;SDS011;8244;50.044;9.006;2023-05-10T11:31:25;2.58;;;1.40;;
16272;SDS011;8244;50.044;9.006;2023-05-10T11:36:28;1.35;;;1.20;;
16272;SDS011;8244;50.044;9.006;2023-05-10T11:41:32;3.22;;;1.50;;
16272;SDS011;8244;50.044;9.006;2023-05-10T11:46:34;3.33;;;1.70;;
16272;SDS011;8244;50.044;9.006;2023-05-10T11:51:37;2.85;;;1.88;;
16272;SDS011;8244;50.044;9.006;2023-05-10T11:56:40;4.78;;;1.50;;
16272;SDS011;8244;50.044;9.006;2023-05-10T12:01:42;2.97;;;1.60;;
16272;SDS011;8244;50.044;9.006;2023-05-10T12:06:44;1.60;;;1.25;;
16272;SDS011;8244;50.044;9.006;2023-05-10T12:11:47;3.42;;;1.35;;
16272;SDS011;8244;50.044;9.006;2023-05-10T12:16:49;1.40;;;1.30;;
16272;SDS011;8244;50.044;9.006;2023-05-10T12:21:51;4.30;;;0.93;;
16272;SDS011;8244;50.044;9.006;2023-05-10T12:26:54;1.65;;;1.00;;
16272;SDS011;8244;50.044;9.006;2023-05-10T12:31:57;3.30;;;1.40;;
16272;SDS011;8244;50.044;9.006;2023-05-10T12:37:00;2.22;;;1.42;;
16272;SDS011;8244;50.044;9.006;2023-05-10T12:42:04;2.35;;;1.00;;
16272;SDS011;8244;50.044;9.006;2023-05-10T12:47:06;1.77;;;1.38;;
16272;SDS011;8244;50.044;9.006;2023-05-10T12:52:08;2.78;;;1.17;;
16272;SDS011;8244;50.044;9.006;2023-05-10T12:57:11;2.50;;;1.30;;
16272;SDS011;8244;50.044;9.006;2023-05-10T13:02:13;1.35;;;1.25;;
16272;SDS011;8244;50.044;9.006;2023-05-10T13:07:17;2.75;;;1.10;;
16272;SDS011;8244;50.044;9.006;2023-05-10T13:12:20;1.95;;;1.02;;
16272;SDS011;8244;50.044;9.006;2023-05-10T13:17:22;1.90;;;0.80;;
16272;SDS011;8244;50.044;9.006;2023-05-10T13:22:24;0.85;;;0.70;;
16272;SDS011;8244;50.044;9.006;2023-05-10T13:27:27;1.60;;;0.80;;
16272;SDS011;8244;50.044;9.006;2023-05-10T13:32:29;0.93;;;0.65;;
16272;SDS011;8244;50.044;9.006;2023-05-10T13:37:31;1.65;;;0.85;;
16272;SDS011;8244;50.044;9.006;2023-05-10T13:42:36;0.88;;;0.82;;
16272;SDS011;8244;50.044;9.006;2023-05-10T13:47:38;1.15;;;0.90;;
16272;SDS011;8244;50.044;9.006;2023-05-10T13:52:40;2.15;;;0.80;;
16272;SDS011;8244;50.044;9.006;2023-05-10T13:57:43;1.30;;;0.73;;
16272;SDS011;8244;50.044;9.006;2023-05-10T14:02:44;3.42;;;0.90;;
16272;SDS011;8244;50.044;9.006;2023-05-10T14:07:46;1.20;;;0.90;;
16272;SDS011;8244;50.044;9.006;2023-05-10T14:12:49;1.58;;;1.00;;
16272;SDS011;8244;50.044;9.006;2023-05-10T14:17:51;2.60;;;0.70;;
16272;SDS011;8244;50.044;9.006;2023-05-10T14:22:52;1.58;;;0.93;;
16272;SDS011;8244;50.044;9.006;2023-05-10T14:27:55;1.23;;;0.80;;
16272;SDS011;8244;50.044;9.006;2023-05-10T14:32:57;0.90;;;0.90;;
16272;SDS011;8244;50.044;9.006;2023-05-10T14:38:01;1.88;;;0.90;;
16272;SDS011;8244;50.044;9.006;2023-05-10T14:43:04;4.10;;;1.35;;
16272;SDS011;8244;50.044;9.006;2023-05-10T14:48:06;2.72;;;1.13;;
16272;SDS011;8244;50.044;9.006;2023-05-10T14:53:12;1.40;;;1.20;;
16272;SDS011;8244;50.044;9.006;2023-05-10T14:58:15;3.55;;;1.45;;
16272;SDS011;8244;50.044;9.006;2023-05-10T15:03:17;2.20;;;1.25;;
16272;SDS011;8244;50.044;9.006;2023-05-10T15:08:19;1.58;;;1.02;;
16272;SDS011;8244;50.044;9.006;2023-05-10T15:13:22;1.35;;;0.80;;
16272;SDS011;8244;50.044;9.006;2023-05-10T15:18:23;2.58;;;0.90;;
16272;SDS011;8244;50.044;9.006;2023-05-10T15:23:25;3.28;;;0.90;;
16272;SDS011;8244;50.044;9.006;2023-05-10T15:28:30;1.27;;;0.93;;
16272;SDS011;8244;50.044;9.006;2023-05-10T15:33:32;3.95;;;1.30;;
16272;SDS011;8244;50.044;9.006;2023-05-10T15:38:33;2.58;;;1.02;;
16272;SDS011;8244;50.044;9.006;2023-05-10T15:43:38;1.83;;;1.13;;
16272;SDS011;8244;50.044;9.006;2023-05-10T15:48:40;3.33;;;1.25;;
16272;SDS011;8244;50.044;9.006;2023-05-10T15:53:41;4.65;;;1.80;;
16272;SDS011;8244;50.044;9.006;2023-05-10T15:58:44;2.47;;;1.40;;
16272;SDS011;8244;50.044;9.006;2023-05-10T16:03:46;7.10;;;1.52;;
16272;SDS011;8244;50.044;9.006;2023-05-10T16:08:48;3.88;;;1.50;;
16272;SDS011;8244;50.044;9.006;2023-05-10T16:13:51;4.35;;;1.48;;
16272;SDS011;8244;50.044;9.006;2023-05-10T16:18:53;4.53;;;1.33;;
16272;SDS011;8244;50.044;9.006;2023-05-10T16:23:54;4.13;;;1.20;;
16272;SDS011;8244;50.044;9.006;2023-05-10T16:28:58;4.88;;;1.40;;
16272;SDS011;8244;50.044;9.006;2023-05-10T16:33:59;3.35;;;1.40;;
16272;SDS011;8244;50.044;9.006;2023-05-10T16:39:01;3.45;;;1.40;;
16272;SDS011;8244;50.044;9.006;2023-05-10T16:44:04;3.60;;;1.33;;
16272;SDS011;8244;50.044;9.006;2023-05-10T16:49:05;5.18;;;1.40;;
16272;SDS011;8244;50.044;9.006;2023-05-10T16:54:08;3.58;;;1.33;;
16272;SDS011;8244;50.044;9.006;2023-05-10T16:59:11;7.97;;;1.58;;
16272;SDS011;8244;50.044;9.006;2023-05-10T17:04:12;4.82;;;1.90;;
16272;SDS011;8244;50.044;9.006;2023-05-10T17:09:15;3.90;;;1.50;;
16272;SDS011;8244;50.044;9.006;2023-05-10T17:14:18;5.60;;;1.70;;
16272;SDS011;8244;50.044;9.006;2023-05-10T17:19:20;6.43;;;5.47;;
16272;SDS011;8244;50.044;9.006;2023-05-10T17:24:21;3.25;;;2.40;;
16272;SDS011;8244;50.044;9.006;2023-05-10T17:29:24;5.13;;;1.95;;
16272;SDS011;8244;50.044;9.006;2023-05-10T17:34:27;3.55;;;1.20;;
16272;SDS011;8244;50.044;9.006;2023-05-10T17:39:29;5.80;;;1.40;;
16272;SDS011;8244;50.044;9.006;2023-05-10T17:44:32;5.07;;;1.45;;
16272;SDS011;8244;50.044;9.006;2023-05-10T17:49:33;1.90;;;1.10;;
16272;SDS011;8244;50.044;9.006;2023-05-10T17:54:35;4.70;;;1.42;;
16272;SDS011;8244;50.044;9.006;2023-05-10T17:59:38;2.30;;;1.40;;
16272;SDS011;8244;50.044;9.006;2023-05-10T18:04:40;3.67;;;1.30;;
16272;SDS011;8244;50.044;9.006;2023-05-10T18:09:42;2.58;;;1.33;;
16272;SDS011;8244;50.044;9.006;2023-05-10T18:14:45;3.72;;;1.52;;
16272;SDS011;8244;50.044;9.006;2023-05-10T18:19:46;7.13;;;1.90;;
16272;SDS011;8244;50.044;9.006;2023-05-10T18:24:48;4.00;;;1.63;;
16272;SDS011;8244;50.044;9.006;2023-05-10T18:29:51;5.10;;;1.77;;
16272;SDS011;8244;50.044;9.006;2023-05-10T18:34:53;4.45;;;1.60;;
16272;SDS011;8244;50.044;9.006;2023-05-10T18:39:55;4.40;;;1.58;;
16272;SDS011;8244;50.044;9.006;2023-05-10T18:44:58;2.20;;;1.50;;
16272;SDS011;8244;50.044;9.006;2023-05-10T18:50:01;3.38;;;1.17;;
16272;SDS011;8244;50.044;9.006;2023-05-10T18:55:03;3.67;;;1.42;;
16272;SDS011;8244;50.044;9.006;2023-05-10T19:00:07;7.07;;;1.63;;
16272;SDS011;8244;50.044;9.006;2023-05-10T19:05:12;3.53;;;1.40;;
16272;SDS011;8244;50.044;9.006;2023-05-10T19:10:14;8.32;;;1.50;;
16272;SDS011;8244;50.044;9.006;2023-05-10T19:15:17;3.88;;;1.30;;
16272;SDS011;8244;50.044;9.006;2023-05-10T19:20:19;6.95;;;1.50;;
16272;SDS011;8244;50.044;9.006;2023-05-10T19:25:21;6.28;;;1.40;;
16272;SDS011;8244;50.044;9.006;2023-05-10T19:30:29;5.03;;;1.50;;
16272;SDS011;8244;50.044;9.006;2023-05-10T19:35:31;3.05;;;1.60;;
16272;SDS011;8244;50.044;9.006;2023-05-10T19:40:33;3.55;;;2.13;;
16272;SDS011;8244;50.044;9.006;2023-05-10T19:45:36;3.60;;;1.60;;
16272;SDS011;8244;50.044;9.006;2023-05-10T19:50:38;3.95;;;1.67;;
16272;SDS011;8244;50.044;9.006;2023-05-10T19:55:39;5.63;;;1.95;;
16272;SDS011;8244;50.044;9.006;2023-05-10T20:00:42;3.35;;;1.77;;
16272;SDS011;8244;50.044;9.006;2023-05-10T20:05:44;6.93;;;2.05;;
16272;SDS011;8244;50.044;9.006;2023-05-10T20:10:46;5.72;;;2.40;;
16272;SDS011;8244;50.044;9.006;2023-05-10T20:15:49;5.45;;;1.60;;
16272;SDS011;8244;50.044;9.006;2023-05-10T20:20:56;3.78;;;1.77;;
16272;SDS011;8244;50.044;9.006;2023-05-10T20:25:59;6.78;;;1.80;;
16272;SDS011;8244;50.044;9.006;2023-05-10T20:31:03;4.35;;;2.33;;
16272;SDS011;8244;50.044;9.006;2023-05-10T20:36:04;3.72;;;1.85;;
16272;SDS011;8244;50.044;9.006;2023-05-10T20:41:08;7.20;;;2.10;;
16272;SDS011;8244;50.044;9.006;2023-05-10T20:46:11;6.35;;;1.90;;
16272;SDS011;8244;50.044;9.006;2023-05-10T20:51:13;4.15;;;1.98;;
16272;SDS011;8244;50.044;9.006;2023-05-10T20:56:14;6.88;;;1.80;;
16272;SDS011;8244;50.044;9.006;2023-05-10T21:01:18;6.00;;;2.10;;
16272;SDS011;8244;50.044;9.006;2023-05-10T21:06:20;6.18;;;2.03;;
16272;SDS011;8244;50.044;9.006;2023-05-10T21:11:21;4.65;;;2.38;;
16272;SDS011;8244;50.044;9.006;2023-05-10T21:16:24;5.13;;;2.20;;
16272;SDS011;8244;50.044;9.006;2023-05-10T21:21:26;8.13;;;2.35;;
16272;SDS011;8244;50.044;9.006;2023-05-10T21:26:28;3.97;;;2.08;;
16272;SDS011;8244;50.044;9.006;2023-05-10T21:31:31;5.82;;;1.92;;
16272;SDS011;8244;50.044;9.006;2023-05-10T21:36:33;5.97;;;2.20;;
16272;SDS011;8244;50.044;9.006;2023-05-10T21:41:35;5.35;;;2.00;;
16272;SDS011;8244;50.044;9.006;2023-05-10T21:46:38;6.63;;;2.20;;
16272;SDS011;8244;50.044;9.006;2023-05-10T21:51:39;5.47;;;2.10;;
16272;SDS011;8244;50.044;9.006;2023-05-10T21:56:41;5.25;;;1.95;;
16272;SDS011;8244;50.044;9.006;2023-05-10T22:01:44;3.63;;;2.17;;
16272;SDS011;8244;50.044;9.006;2023-05-10T22:06:45;4.88;;;2.13;;
16272;SDS011;8244;50.044;9.006;2023-05-10T22:11:48;3.33;;;2.13;;
16272;SDS011;8244;50.044;9.006;2023-05-10T22:16:51;5.90;;;2.45;;
16272;SDS011;8244;50.044;9.006;2023-05-10T22:21:52;6.25;;;2.58;;
16272;SDS011;8244;50.044;9.006;2023-05-10T22:26:54;9.82;;;2.50;;
16272;SDS011;8244;50.044;9.006;2023-05-10T22:31:57;7.00;;;2.60;;
16272;SDS011;8244;50.044;9.006;2023-05-10T22:37:04;5.00;;;2.97;;
16272;SDS011;8244;50.044;9.006;2023-05-10T22:42:05;8.63;;;3.03;;
16272;SDS011;8244;50.044;9.006;2023-05-10T22:47:08;5.57;;;2.40;;
16272;SDS011;8244;50.044;9.006;2023-05-10T22:52:10;4.57;;;2.10;;
16272;SDS011;8244;50.044;9.006;2023-05-10T22:57:12;5.32;;;2.25;;
16272;SDS011;8244;50.044;9.006;2023-05-10T23:02:15;4.65;;;2.50;;
16272;SDS011;8244;50.044;9.006;2023-05-10T23:07:17;3.67;;;2.10;;
16272;SDS011;8244;50.044;9.006;2023-05-10T23:12:18;5.75;;;2.20;;
16272;SDS011;8244;50.044;9.006;2023-05-10T23:17:21;6.72;;;2.25;;
16272;SDS011;8244;50.044;9.006;2023-05-10T23:22:23;5.60;;;2.30;;
16272;SDS011;8244;50.044;9.006;2023-05-10T23:27:27;5.90;;;1.95;;
16272;SDS011;8244;50.044;9.006;2023-05-10T23:32:30;4.50;;;1.90;;
16272;SDS011;8244;50.044;9.006;2023-05-10T23:37:31;2.70;;;2.20;;
16272;SDS011;8244;50.044;9.006;2023-05-10T23:42:33;5.80;;;2.15;;
16272;SDS011;8244;50.044;9.006;2023-05-10T23:47:36;4.40;;;2.47;;
16272;SDS011;8244;50.044;9.006;2023-05-10T23:52:38;7.45;;;2.45;;
16272;SDS011;8244;50.044;9.006;2023-05-10T23:57:39;2.95;;;1.98;;
